Saison 2025 · Manche 5

Saudi Arabian Grand Prix

2025-04-20 · Jeddah Corniche Circuit · Saudi Arabia · Saudi Arabian Grand Prix · 50Lap · 308.450km
McLaren 1:21:06.758
Victoire par équipe 37pt P1 · P4
Red Bull +2.843
Ferrari +8.104
Meilleur tour
1:31.778 · L41
Abandon
2
Yuki Tsunoda L1 Pierre Gasly L0
Météo
29°/38°
moy. air/piste · sec · humidité 63%
Voiture de sécurité
1
déployée au tour L1
Utilisation des pneus Direction de course
Storylines · This Grand Prix & circuit
Most SC/VSC · all-time P31
Arrivée la plus serrée · all-time P47
Circuit Info
Jeddah Corniche Circuit Jeddah, Saudi Arabia
50Lap 308.450km 5 courses held (2021–) Record du tour 1:30.734 · Lewis Hamilton (2021)
Records Watch · Active drivers ranked at this Grand Prix
P1 Max Verstappen 2 victoires · GP #1
P2 Lewis Hamilton 1 victoires · → Max Verstappen -1
P2 Oscar Piastri 1 victoires · → Max Verstappen -1
P1 Fernando Alonso 5 départs · GP #1
P1 Pierre Gasly 5 départs · GP #1
P1 Lewis Hamilton 5 départs · GP #1
Course Trace · position by lap
SC · tours 1–3 départ arrêté SG 1 5 9 13 17 21 25 29 33 37 41 45 49 FIN Piastri · arrêt aux stands L19 Piastri PIA Piastri PIA Verstappen · arrêt aux stands L21 · pénalité purgée Verstappen VER Verstappen VER Leclerc · arrêt aux stands L29 Leclerc LEC Leclerc LEC Norris · arrêt aux stands L34 Norris NOR Norris NOR Russell · arrêt aux stands L20 Russell RUS Russell RUS Antonelli · arrêt aux stands L19 Antonelli ANT Antonelli ANT Hamilton · arrêt aux stands L23 Hamilton HAM Hamilton HAM Sainz · arrêt aux stands L21 Sainz SAI Sainz SAI Albon · arrêt aux stands L22 Albon ALB Albon ALB Hadjar · arrêt aux stands L34 Hadjar HAD Hadjar HAD Alonso · arrêt aux stands L19 Alonso ALO Alonso ALO Lawson · arrêt aux stands L20 Lawson · +10s ajouté après la course Lawson LAW Lawson LAW Bearman · arrêt aux stands L18 Bearman BEA Bearman BEA Ocon · arrêt aux stands L1 Ocon OCO Ocon OCO Hülkenberg · arrêt aux stands L33 Hülkenberg HUL Hülkenberg HUL Stroll · arrêt aux stands L39 Stroll STR Stroll STR Doohan · arrêt aux stands L1 Doohan · arrêt aux stands L32 Doohan DOO Doohan DOO Bortoleto · arrêt aux stands L1 Bortoleto BOR Bortoleto BOR Tsunoda · abandon L1 Tsunoda TSU Tsunoda TSU Gasly · abandon L0 Gasly GAS Gasly GAS
SC·VSC arrêt aux stands pénalité purgée aux stands SG Grille de départ FIN classement officiel pénalité ajoutée après la course voiture arrêtée position à chaque tour (depuis 1996)
PosPiloteTeamGrilleTourTemps / StatutPoints
1 81 Oscar Piastri McLaren 2 50 1:21:06.758 25
2 1 Max Verstappen Red Bull 1 50 +2.843 18
3 16 Charles Leclerc Ferrari 4 50 +8.104 15
4 4 Lando Norris FL McLaren 10 50 +9.196 12
5 63 George Russell Mercedes 3 50 +27.236 10
6 12 Andrea Kimi Antonelli Mercedes 5 50 +34.688 8
7 44 Lewis Hamilton Ferrari 7 50 +39.073 6
8 55 Carlos Sainz Williams 6 50 +1:04.630 4
9 23 Alexander Albon Williams 11 50 +1:06.515 2
10 6 Isack Hadjar RB F1 Team 14 50 +1:07.091 1
11 14 Fernando Alonso Aston Martin 13 50 +1:15.917
12 30 Liam Lawson RB F1 Team 12 50 +1:18.451
13 87 Oliver Bearman Haas F1 Team 15 50 +1:19.194
14 31 Esteban Ocon Haas F1 Team 19 50 +1:39.723
15 27 Nico Hülkenberg Sauber 18 49 +4.609
16 18 Lance Stroll Aston Martin 16 49 +5.527
17 7 Jack Doohan Alpine F1 Team 17 49 +19.264
18 5 Gabriel Bortoleto Sauber 20 49 +19.306
R 22 Yuki Tsunoda Red Bull 8 1 Retired
R 10 Pierre Gasly Alpine F1 Team 9 0 Retired
PosPiloteTeamQ1Q2Q3Écart à la pole
1 1 Max Verstappen Red Bull 1:27.778 1:27.529 1:27.294 POLE Q3
2 81 Oscar Piastri McLaren 1:27.901 1:27.545 1:27.304 +0.010 Q3
3 63 George Russell Mercedes 1:28.282 1:27.599 1:27.407 +0.113 Q3
4 16 Charles Leclerc Ferrari 1:28.552 1:27.866 1:27.670 +0.376 Q3
5 12 Andrea Kimi Antonelli Mercedes 1:28.128 1:27.798 1:27.866 +0.504 Q2
6 55 Carlos Sainz Williams 1:28.354 1:28.024 1:28.164 +0.730 Q2
7 44 Lewis Hamilton Ferrari 1:28.372 1:28.102 1:28.201 +0.808 Q2
8 22 Yuki Tsunoda Red Bull 1:28.226 1:27.990 1:28.204 +0.696 Q2
9 10 Pierre Gasly Alpine F1 Team 1:28.421 1:28.025 1:28.367 +0.731 Q2
10 4 Lando Norris McLaren 1:27.805 1:27.481 +0.187 Q2
11 23 Alexander Albon Williams 1:28.279 1:28.109 +0.815 Q2
12 30 Liam Lawson RB F1 Team 1:28.561 1:28.191 +0.897 Q2
13 14 Fernando Alonso Aston Martin 1:28.548 1:28.303 +1.009 Q2
14 6 Isack Hadjar RB F1 Team 1:28.571 1:28.418 +1.124 Q2
15 87 Oliver Bearman Haas F1 Team 1:28.536 1:28.648 +1.242 Q1
16 18 Lance Stroll Aston Martin 1:28.645 +1.351 Q1
17 7 Jack Doohan Alpine F1 Team 1:28.739 +1.445 Q1
18 27 Nico Hülkenberg Sauber 1:28.782 +1.488 Q1
19 31 Esteban Ocon Haas F1 Team 1:29.092 +1.798 Q1
20 5 Gabriel Bortoleto Sauber 1:29.462 +2.168 Q1
Grille de départ
Officielle
Final grid as classé, including any depuis la voie des stands départs. Source: Jolpica-F1. The arrow compares the grid slot with the les qualifications classification; hover a drop to see the stewards document behind it.
Aucune donnée pour cette séance.
PosPiloteMeilleur tourÉcartTours
1 10 Pierre Gasly 1:29.239 25
2 4 Lando Norris 1:29.246 +0.007 25
3 16 Charles Leclerc 1:29.309 +0.070 28
4 81 Oscar Piastri 1:29.341 +0.102 25
5 23 Alexander Albon 1:29.606 +0.367 23
6 63 George Russell 1:29.618 +0.379 21
7 55 Carlos Sainz 1:29.779 +0.540 26
8 44 Lewis Hamilton 1:29.815 +0.576 27
9 1 Max Verstappen 1:29.818 +0.579 26
10 22 Yuki Tsunoda 1:29.821 +0.582 26
11 30 Liam Lawson 1:29.907 +0.668 19
12 27 Nico Hülkenberg 1:29.916 +0.677 25
13 12 Andrea Kimi Antonelli 1:29.934 +0.695 24
14 14 Fernando Alonso 1:29.976 +0.737 24
15 6 Isack Hadjar 1:30.011 +0.772 15
16 7 Jack Doohan 1:30.183 +0.944 25
17 18 Lance Stroll 1:30.583 +1.344 23
18 87 Oliver Bearman 1:30.595 +1.356 21
19 31 Esteban Ocon 1:31.029 +1.790 21
20 5 Gabriel Bortoleto 1:31.038 +1.799 23
Classified by best lap · source OpenF1 (2023+)
PosPiloteMeilleur tourÉcartTours
1 4 Lando Norris 1:28.267 21
2 81 Oscar Piastri 1:28.430 +0.163 22
3 1 Max Verstappen 1:28.547 +0.280 23
4 16 Charles Leclerc 1:28.749 +0.482 22
5 55 Carlos Sainz 1:28.942 +0.675 24
6 22 Yuki Tsunoda 1:28.963 +0.696 19
7 63 George Russell 1:28.973 +0.706 21
8 10 Pierre Gasly 1:29.106 +0.839 22
9 27 Nico Hülkenberg 1:29.193 +0.926 21
10 23 Alexander Albon 1:29.220 +0.953 23
11 12 Andrea Kimi Antonelli 1:29.242 +0.975 16
12 6 Isack Hadjar 1:29.306 +1.039 17
13 44 Lewis Hamilton 1:29.371 +1.104 23
14 30 Liam Lawson 1:29.488 +1.221 22
15 14 Fernando Alonso 1:29.662 +1.395 18
16 87 Oliver Bearman 1:29.754 +1.487 19
17 7 Jack Doohan 1:29.912 +1.645 21
18 18 Lance Stroll 1:30.007 +1.740 18
19 31 Esteban Ocon 1:30.019 +1.752 22
Classified by best lap · source OpenF1 (2023+)
PosPiloteMeilleur tourÉcartTours
1 4 Lando Norris 1:27.489 18
2 81 Oscar Piastri 1:27.513 +0.024 19
3 63 George Russell 1:28.116 +0.627 17
4 1 Max Verstappen 1:28.334 +0.845 14
5 16 Charles Leclerc 1:28.372 +0.883 21
6 23 Alexander Albon 1:28.389 +0.900 16
7 55 Carlos Sainz 1:28.570 +1.081 15
8 10 Pierre Gasly 1:28.625 +1.136 16
9 22 Yuki Tsunoda 1:28.670 +1.181 14
10 12 Andrea Kimi Antonelli 1:28.679 +1.190 18
11 6 Isack Hadjar 1:28.769 +1.280 17
12 44 Lewis Hamilton 1:28.780 +1.291 20
13 30 Liam Lawson 1:28.861 +1.372 18
14 14 Fernando Alonso 1:28.888 +1.399 19
15 7 Jack Doohan 1:28.898 +1.409 21
16 87 Oliver Bearman 1:28.989 +1.500 15
17 27 Nico Hülkenberg 1:29.220 +1.731 16
18 31 Esteban Ocon 1:29.336 +1.847 20
19 5 Gabriel Bortoleto 1:29.410 +1.921 24
20 18 Lance Stroll 1:29.478 +1.989 19
Classified by best lap · source OpenF1 (2023+)
#PiloteTemps au tourTour
1 4 Lando Norris 1:31.778 L41
2 4 Lando Norris 1:31.857 L43
3 4 Lando Norris 1:31.992 L42
4 4 Lando Norris 1:32.057 L44
5 4 Lando Norris 1:32.113 L45
6 4 Lando Norris 1:32.130 L37
7 4 Lando Norris 1:32.131 L48
8 4 Lando Norris 1:32.143 L38
9 4 Lando Norris 1:32.178 L49
10 16 Charles Leclerc 1:32.192 L49
Top 10 la plus rapide race tours — #1 is the la plus rapide lap of la course(FL).
Arrêts aux stands · comparaison
20s 22s 24s 26s médiane 20.8s Charles Leclerc · L29 · 20.131s Lewis Hamilton · L23 · 20.144s George Russell · L20 · 20.329s Andrea Kimi Antonelli · L19 · 20.399s Lando Norris · L34 · 20.427s Nico Hülkenberg · L33 · 20.441s Lance Stroll · L39 · 20.487s Liam Lawson · L20 · 20.534s Jack Doohan · L1 · 20.571s Isack Hadjar · L34 · 20.827s Oscar Piastri · L19 · 21.388s Esteban Ocon · L1 · 21.512s Jack Doohan · L32 · 21.521s Gabriel Bortoleto · L1 · 21.854s Fernando Alonso · L19 · 21.891s Oliver Bearman · L18 · 22.095s Alexander Albon · L22 · 22.135s Carlos Sainz · L21 · 24.148s Max Verstappen · L21 · 26.030s · pénalité purgée
la plus rapide 20.131s Charles Leclerc la plus lente 26.030s Max Verstappen pénalité purgée temps de passage dans la voie des stands — un point par arrêt
PiloteArrêtTourTempsPassage dans la voie des stands
7 Jack Doohan 1 1 20:06:22 20.571s
31 Esteban Ocon 1 1 20:06:23 21.512s
5 Gabriel Bortoleto 1 1 20:06:24 21.854s
87 Oliver Bearman 1 18 20:35:43 22.095s
81 Oscar Piastri 1 19 20:36:44 21.388s
12 Andrea Kimi Antonelli 1 19 20:36:59 20.399s
14 Fernando Alonso 1 19 20:37:16 21.891s
30 Liam Lawson 1 20 20:38:49 20.534s
63 George Russell 1 20 20:38:24 20.329s
1 Max Verstappen 1 21 20:39:49 26.030s
55 Carlos Sainz 1 21 20:40:17 24.148s
23 Alexander Albon 1 22 20:41:56 22.135s
44 Lewis Hamilton 1 23 20:43:22 20.144s
16 Charles Leclerc 1 29 20:52:29 20.131s
7 Jack Doohan 2 32 20:58:15 21.521s
27 Nico Hülkenberg 1 33 20:59:42 20.441s
4 Lando Norris 1 34 21:00:17 20.427s
6 Isack Hadjar 1 34 21:00:52 20.827s
18 Lance Stroll 1 39 21:09:12 20.487s
arrêts
SG 10 20 30 40 L50
81
1
M18
H32
1
1
M20
H30
16
1
M28
H22
4
1
H33
M17
63
1
M19
H31
12
1
M18
H32
44
1
M22
H28
55
1
M20
H30
23
1
M21
H29
6
1
H33
M17
14
1
M18·+1
H32·+1
30
1
M19
H31·+1
87
1
M17
H33
31
1
H50
27
1
H32
M17
18
1
H38·+1
M11·+1
7
2
H31
H18
5
1
H49
22
0
M1
10
0
M1
S Soft M Medium H Hard I Intermediate W Wet SC·VSC arrêt aux stands pénalité purgée aux stands
Course · largeur de barre = tours sur ce train, ·+N = monté usagé avec N tours au compteur · source OpenF1 (2023+)
Composés désignés pour ce Grand Prix
C3 Dur C4 Medium C5 Tendre
Pirelli désigne trois de ses composés slicks pour chaque épreuve ; plus le numéro C est élevé, plus le pneu est tendre. Document FIA ↗
Plus de places gagnées en piste
4
+9
P10→P4
55
+7
P6→P8
30
+7
P12→P12
31
+7
P19→P14
27
+7
P18→P15
23
+6
P11→P9
18
+6
P16→P16
5
+6
P20→P18
Plus de places perdues
Carlos Sainz −8 Lance Stroll −8 Fernando Alonso −7
Course · Somme des places gagnées en piste tour par tour — tour de départ et tours aux stands du pilote exclus. Données de tours de course depuis 1996.
PiloteTypeTourPurgéeInfligéeMotif
22 Yuki Tsunoda No further action Car 22 allegedly caused a collision with Car 10 in Turn 5. (No further action.) Doc 45 ↗
Car 22 allegedly caused a collision with Car 10 in Turn 5. (No further action.) Doc 45 ↗
1 Max Verstappen Time penalty 3 21 +5s Car 1 left the track at turn 2 and gained a lasting advantage. (5 second time penalty.) Doc 44 ↗
Tour 3 · Purgée 21 · +5s Car 1 left the track at turn 2 and gained a lasting advantage. (5 second time penalty.) Doc 44 ↗
30 Liam Lawson Time penalty 38 Après la course +10s Car 30 left the track at turn 2 and gained a lasting advantage. (10 second time penalty. (10 seconds added to elapsed Course time)) Doc 46 ↗
Tour 38 · Purgée Après la course · +10s Car 30 left the track at turn 2 and gained a lasting advantage. (10 second time penalty. (10 seconds added to elapsed Course time)) Doc 46 ↗
5 Gabriel Bortoleto Black-and-white flag warning 35 MOVING UNDER BRAKING
Tour 35 MOVING UNDER BRAKING
1 Max Verstappen Tours supprimés 8 TRACK LIMITS
Tour 8 TRACK LIMITS
12 Andrea Kimi Antonelli Tours supprimés 8 TRACK LIMITS
Tour 8 TRACK LIMITS
Tour = tour où la pénalité a été infligée · Purgée = tour où elle a été purgée aux stands (vide : ajoutée au temps de course)
Time, drive-through and stop-go penalties come from race control messages (OpenF1, 2023+). Grille penalties never appear there — the stewards publish them as documents after the session — so they are worked back from the starting grid against the les qualifications classification, which gives places actually lost rather than the figure written in the decision.
PiloteTypeTourPurgéeInfligéeMotif
23 Alexander Albon Tours supprimés TRACK LIMITS (PIT)
TRACK LIMITS (PIT)
7 Jack Doohan Tours supprimés TRACK LIMITS (PIT)
TRACK LIMITS (PIT)
7 Jack Doohan Tours supprimés TRACK LIMITS
TRACK LIMITS
27 Nico Hülkenberg Tours supprimés TRACK LIMITS (PIT)
TRACK LIMITS (PIT)
5 Gabriel Bortoleto Tours supprimés TRACK LIMITS (PIT)
TRACK LIMITS (PIT)
5 Gabriel Bortoleto Tours supprimés TRACK LIMITS (PIT)
TRACK LIMITS (PIT)
23 Alexander Albon Tours supprimés TRACK LIMITS (PIT)
TRACK LIMITS (PIT)
30 Liam Lawson Tours supprimés TRACK LIMITS (PIT)
TRACK LIMITS (PIT)
10 Pierre Gasly Tours supprimés TRACK LIMITS (PIT)
TRACK LIMITS (PIT)
Tour = tour où la pénalité a été infligée · Purgée = tour où elle a été purgée aux stands (vide : ajoutée au temps de course)
Time, drive-through and stop-go penalties come from race control messages (OpenF1, 2023+). Grille penalties never appear there — the stewards publish them as documents after the session — so they are worked back from the starting grid against the les qualifications classification, which gives places actually lost rather than the figure written in the decision.
PiloteTypeTourPurgéeInfligéeMotif
7 Jack Doohan Réprimande Car 7 crossed the painted area between the pit entry and the track. (Réprimande (Driving)) Doc 28 ↗
Car 7 crossed the painted area between the pit entry and the track. (Réprimande (Driving)) Doc 28 ↗
7 Jack Doohan Black-and-white flag warning Car 7 crossed the painted area between the pit entry and the track. (Warning.) Doc 27 ↗
Car 7 crossed the painted area between the pit entry and the track. (Warning.) Doc 27 ↗
Tour = tour où la pénalité a été infligée · Purgée = tour où elle a été purgée aux stands (vide : ajoutée au temps de course)
Time, drive-through and stop-go penalties come from race control messages (OpenF1, 2023+). Grille penalties never appear there — the stewards publish them as documents after the session — so they are worked back from the starting grid against the les qualifications classification, which gives places actually lost rather than the figure written in the decision.
PiloteTypeTourPurgéeInfligéeMotif
30 Liam Lawson Réprimande Car 30 entered the painted area between the pit entry and the track. (Réprimande (Driving) This is the driver’s first reprimand for the 2025 season.) Doc 14 ↗
Car 30 entered the painted area between the pit entry and the track. (Réprimande (Driving) This is the driver’s first reprimand for the 2025 season.) Doc 14 ↗
30 Liam Lawson Black-and-white flag warning Car 30 entered the painted area between the pit entry and the track. (Warning.) Doc 13 ↗
Car 30 entered the painted area between the pit entry and the track. (Warning.) Doc 13 ↗
Tour = tour où la pénalité a été infligée · Purgée = tour où elle a été purgée aux stands (vide : ajoutée au temps de course)
Time, drive-through and stop-go penalties come from race control messages (OpenF1, 2023+). Grille penalties never appear there — the stewards publish them as documents after the session — so they are worked back from the starting grid against the les qualifications classification, which gives places actually lost rather than the figure written in the decision.
PiloteTypeTourPurgéeInfligéeMotif
44 Lewis Hamilton No further action Car 44 allegedly impeded Car 23 in Turn 17. (No further action.) Doc 20 ↗
Car 44 allegedly impeded Car 23 in Turn 17. (No further action.) Doc 20 ↗
Tour = tour où la pénalité a été infligée · Purgée = tour où elle a été purgée aux stands (vide : ajoutée au temps de course)
Time, drive-through and stop-go penalties come from race control messages (OpenF1, 2023+). Grille penalties never appear there — the stewards publish them as documents after the session — so they are worked back from the starting grid against the les qualifications classification, which gives places actually lost rather than the figure written in the decision.
DocTitreObjetPublished(CET)
1 Event Notes - Pirelli Preview ↗ 2025-04-16 10:45
2025-04-16 10:45 CET
2 Course Director's Event Notes ↗ 2025-04-17 17:43
2025-04-17 17:43 CET
3 Car Display Procedure ↗ 2025-04-17 19:18
2025-04-17 19:18 CET
4 Event Notes - Circuit Map, Pit Lane and Quarantine Zone ↗ 2025-04-18 08:39
2025-04-18 08:39 CET
5 PU elements utilisés per driver up to now ↗ 2025-04-18 11:40
2025-04-18 11:40 CET
6 Self Scrutineering ↗ 2025-04-18 11:41
2025-04-18 11:41 CET
7 Car Presentation Submissions ↗ 2025-04-18 13:00
2025-04-18 13:00 CET
8 Course Director's Event Notes V2 ↗ 2025-04-18 13:26
2025-04-18 13:26 CET
9 Entry List ↗ 2025-04-18 13:30
2025-04-18 13:30 CET
10 New PU elements for this Competition ↗ 2025-04-18 15:54
2025-04-18 15:54 CET
11 Summons - Car 30 - Alleged failure to follow Course Director's instructions (Pit Entry) ↗ 30 Liam Lawson 2025-04-18 16:17
30 Liam Lawson 2025-04-18 16:17 CET
12 P1 Classification ↗ 2025-04-18 16:50
2025-04-18 16:50 CET
13 Infringement - Car 30 - Failure to follow Course Director's instructions (Pit Entry - 1st time) ↗ 30 Liam Lawson 2025-04-18 17:40
30 Liam Lawson 2025-04-18 17:40 CET
14 Infringement - Car 30 - Failure to follow Course Director's instructions (Pit Entry - 2nd time) ↗ 30 Liam Lawson 2025-04-18 17:44
30 Liam Lawson 2025-04-18 17:44 CET
17 Summons - Car 44 - Alleged impeding of Car 23 (Corrected) ↗ 44 Lewis Hamilton 2025-04-18 19:43
44 Lewis Hamilton 2025-04-18 19:43 CET
18 Summons - Car 23 - Alleged impeding by Car 44 (Corrected) ↗ 23 Alexander Albon 2025-04-18 19:43
23 Alexander Albon 2025-04-18 19:43 CET
19 P2 Classification ↗ 2025-04-18 20:22
2025-04-18 20:22 CET
20 Decision - Car 44 - Alleged impeding of Car 23 ↗ 44 Lewis Hamilton 2025-04-18 20:38
44 Lewis Hamilton 2025-04-18 20:38 CET
21 Course Director Notes - SC2 - SC1 Times ↗ 2025-04-18 20:44
2025-04-18 20:44 CET
22 P1 and P2 Scrutineering ↗ 2025-04-18 22:05
2025-04-18 22:05 CET
23 Post-Qualifications Procedure ↗ 2025-04-19 12:43
2025-04-19 12:43 CET
24 Self Scrutineering ↗ 2025-04-19 13:02
2025-04-19 13:02 CET
25 New PU elements for this Competition ↗ 2025-04-19 15:47
2025-04-19 15:47 CET
26 Summons - Car 7 - Alleged failure to follow Course Director's instructions (Pit Entry) ↗ 7 Jack Doohan 2025-04-19 16:26
7 Jack Doohan 2025-04-19 16:26 CET
27 Infringement - Car 7 - Failure to follow Course Director's instructions (Pit Entry - 1st time) ↗ 7 Jack Doohan 2025-04-19 16:49
7 Jack Doohan 2025-04-19 16:49 CET
28 Infringement - Car 7 - Failure to follow Course Director's instructions (Pit Entry - 2nd time) ↗ 7 Jack Doohan 2025-04-19 16:50
7 Jack Doohan 2025-04-19 16:50 CET
29 P3 Classification ↗ 2025-04-19 17:00
2025-04-19 17:00 CET
30 Provisional Qualifications Classification ↗ 2025-04-19 20:30
2025-04-19 20:30 CET
31 Qualifications Deleted Tour Times ↗ 2025-04-19 21:40
2025-04-19 21:40 CET
32 Qualifications SC2-SC1 Times ↗ 2025-04-19 21:42
2025-04-19 21:42 CET
33 P3 and Qualifications Scrutineering ↗ 2025-04-19 22:33
2025-04-19 22:33 CET
34 Final Qualifications Classification ↗ 2025-04-19 22:35
2025-04-19 22:35 CET
35 Provisional Starting Grille ↗ 2025-04-19 22:40
2025-04-19 22:40 CET
36 Pre-Course Procedure ↗ 2025-04-20 15:59
2025-04-20 15:59 CET
37 Post-Course Procedure ↗ 2025-04-20 15:59
2025-04-20 15:59 CET
38 Parts and parameters been replaced and or changed during Parc Fermé ↗ 2025-04-20 18:00
2025-04-20 18:00 CET
39 Final Starting Grille ↗ 2025-04-20 18:03
2025-04-20 18:03 CET
40 Summons - Car 22 - Incident with Car 10 ↗ 22 Yuki Tsunoda 2025-04-20 20:30
22 Yuki Tsunoda 2025-04-20 20:30 CET
41 Summons - Car 10 - Incident with Car 22 ↗ 10 Pierre Gasly 2025-04-20 20:31
10 Pierre Gasly 2025-04-20 20:31 CET
42 Provisional Course Classification ↗ 2025-04-20 20:41
2025-04-20 20:41 CET
43 Infringement - Course Deleted Tour Times ↗ 2025-04-20 20:45
2025-04-20 20:45 CET
44 Infringement - Car 1 - Leaving the track and gaining an advantage ↗ 1 Max Verstappen 2025-04-20 21:44
1 Max Verstappen 2025-04-20 21:44 CET
45 Decision - Car 22 - Alleged causing a collision with Car 10 ↗ 22 Yuki Tsunoda 2025-04-20 21:56
22 Yuki Tsunoda 2025-04-20 21:56 CET
46 Infringement - Car 30 - Leaving the track and gaining an advantage ↗ 30 Liam Lawson 2025-04-20 22:13
30 Liam Lawson 2025-04-20 22:13 CET
47 Course Scrutineering ↗ 2025-04-20 22:35
2025-04-20 22:35 CET
48 Final Course Classification ↗ 2025-04-20 22:47
2025-04-20 22:47 CET
49 Championnat Points ↗ 2025-04-20 22:50
2025-04-20 22:50 CET
FIA official decisions and documents (fia.com) · PDF original PDF links
Record Basis · Calculation basis
Course order is the final classification(post-race penalties applied) · les qualifications session data 2003+ · lap times 1996+ · pit stops 2012+ (pit-lane transit, not stationary time) · Abandon = Finished(Finished·+N Tours) non-Finished statuses
Sources des données: Jolpica-F1 (Ergast compatible API) · weather·Direction de course OpenF1 (2023+) · Last fetched: 2026-09-05 14:15